createdAt,value
2022-07-28T00:01:59.423Z,5.90
2022-07-28T00:04:47.332Z,6.00
2022-07-28T00:07:35.645Z,6.13
2022-07-28T00:10:23.534Z,6.75
2022-07-28T00:13:11.510Z,5.25
2022-07-28T00:15:59.521Z,5.85
2022-07-28T00:18:47.429Z,5.57
2022-07-28T00:21:35.379Z,5.93
2022-07-28T00:24:24.407Z,5.68
2022-07-28T00:27:12.213Z,6.28
2022-07-28T00:29:59.947Z,5.55
2022-07-28T00:32:47.818Z,5.50
2022-07-28T00:35:35.858Z,5.82
2022-07-28T00:38:23.901Z,5.97
2022-07-28T00:41:11.907Z,5.90
2022-07-28T00:43:59.723Z,6.45
2022-07-28T00:46:48.256Z,6.80
2022-07-28T00:49:36.196Z,5.72
2022-07-28T00:52:25.258Z,5.72
2022-07-28T00:55:13.106Z,6.88
2022-07-28T00:58:01.645Z,7.40
2022-07-28T01:00:50.935Z,6.07
2022-07-28T01:03:41.782Z,6.38
2022-07-28T01:06:38.960Z,6.38
2022-07-28T01:09:56.784Z,6.70
2022-07-28T01:13:22.108Z,6.10
2022-07-28T01:16:10.185Z,6.47
2022-07-28T01:19:36.265Z,6.32
2022-07-28T01:22:30.282Z,6.70
2022-07-28T01:25:29.424Z,6.40
2022-07-28T01:28:54.149Z,6.72
2022-07-28T01:31:45.176Z,6.00
2022-07-28T01:34:45.755Z,5.90
2022-07-28T01:37:39.657Z,5.47
2022-07-28T01:40:33.612Z,6.38
2022-07-28T01:43:26.348Z,6.50
2022-07-28T01:46:16.361Z,6.40
2022-07-28T01:49:05.282Z,5.80
2022-07-28T01:51:55.409Z,6.88
2022-07-28T01:54:45.857Z,6.10
2022-07-28T01:57:37.153Z,5.93
2022-07-28T02:00:27.902Z,5.97
2022-07-28T02:03:18.488Z,6.45
2022-07-28T02:06:07.768Z,6.68
2022-07-28T02:08:58.249Z,6.07
2022-07-28T02:11:48.104Z,6.18
2022-07-28T02:14:37.607Z,6.70
2022-07-28T02:17:30.866Z,6.57
2022-07-28T02:20:19.907Z,6.97
2022-07-28T02:23:08.956Z,6.53
2022-07-28T02:25:59.096Z,6.30
2022-07-28T02:28:52.783Z,6.75
2022-07-28T02:32:24.113Z,6.28
2022-07-28T02:35:34.503Z,6.00
2022-07-28T02:38:31.124Z,6.20
2022-07-28T02:41:30.010Z,8.27
2022-07-28T02:44:21.239Z,7.03
2022-07-28T02:47:11.633Z,6.60
2022-07-28T02:55:40.175Z,8.05
2022-07-28T02:58:29.799Z,7.50
2022-07-28T03:01:21.727Z,8.87
2022-07-28T03:04:11.021Z,8.75
2022-07-28T03:06:58.971Z,7.80
2022-07-28T03:09:48.518Z,6.47
2022-07-28T03:12:36.296Z,8.17
2022-07-28T03:15:25.196Z,8.20
2022-07-28T03:18:12.961Z,7.35
2022-07-28T03:21:01.471Z,8.30
2022-07-28T03:23:51.867Z,7.40
2022-07-28T03:29:31.518Z,7.17
2022-07-28T03:32:22.659Z,7.65
2022-07-28T03:35:12.628Z,6.10
2022-07-28T03:38:04.346Z,7.40
2022-07-28T03:40:56.598Z,7.28
2022-07-28T03:43:45.158Z,6.80
2022-07-28T03:46:33.926Z,7.35
2022-07-28T03:49:22.443Z,7.07
2022-07-28T03:52:10.323Z,7.63
2022-07-28T03:54:58.144Z,7.35
2022-07-28T03:57:46.429Z,7.53
2022-07-28T04:00:34.397Z,7.70
2022-07-28T04:03:35.798Z,7.60
2022-07-28T04:06:30.163Z,7.40
2022-07-28T04:09:18.122Z,6.53
2022-07-28T04:12:06.209Z,7.85
2022-07-28T04:14:53.946Z,7.00
2022-07-28T04:17:43.041Z,6.68
2022-07-28T04:20:30.974Z,7.07
2022-07-28T04:23:20.862Z,7.50
2022-07-28T04:26:08.808Z,7.72
2022-07-28T04:28:56.617Z,6.75
2022-07-28T04:31:44.886Z,6.55
2022-07-28T04:34:32.716Z,6.47
2022-07-28T04:37:20.462Z,6.97
2022-07-28T04:40:10.509Z,6.78
2022-07-28T04:42:58.287Z,6.80
2022-07-28T04:45:53.827Z,7.63
2022-07-28T04:48:42.345Z,7.15
2022-07-28T04:51:30.388Z,7.03
2022-07-28T04:54:20.943Z,7.68
2022-07-28T04:57:12.690Z,7.53
2022-07-28T05:00:01.028Z,6.88
2022-07-28T05:02:49.334Z,6.93
2022-07-28T05:05:37.151Z,7.38
2022-07-28T05:08:25.595Z,7.15
2022-07-28T05:11:14.046Z,6.85
2022-07-28T05:14:01.903Z,6.97
2022-07-28T05:16:50.009Z,6.88
2022-07-28T05:19:38.002Z,7.40
2022-07-28T05:22:25.859Z,7.07
2022-07-28T05:25:18.807Z,7.10
2022-07-28T05:28:06.628Z,7.60
2022-07-28T05:30:54.503Z,6.85
2022-07-28T05:33:42.489Z,8.15
2022-07-28T05:36:30.424Z,6.82
2022-07-28T05:39:18.562Z,6.55
2022-07-28T05:42:06.577Z,6.82
2022-07-28T05:44:54.648Z,6.03
2022-07-28T05:47:47.778Z,6.20
2022-07-28T05:50:35.719Z,7.00
2022-07-28T05:53:24.192Z,7.13
2022-07-28T05:56:12.007Z,6.80
2022-07-28T05:58:59.821Z,6.43
2022-07-28T06:01:47.788Z,7.13
2022-07-28T06:04:36.189Z,6.75
2022-07-28T06:07:43.745Z,6.78
2022-07-28T06:10:52.651Z,6.80
2022-07-28T06:13:40.615Z,6.93
2022-07-28T06:16:28.466Z,6.90
2022-07-28T06:19:16.245Z,7.22
2022-07-28T06:22:04.201Z,6.90
2022-07-28T06:24:52.034Z,6.72
2022-07-28T06:27:40.034Z,6.40
2022-07-28T06:30:28.638Z,6.75
2022-07-28T06:33:17.680Z,6.55
2022-07-28T06:36:05.640Z,6.85
2022-07-28T06:38:53.443Z,6.30
2022-07-28T06:41:44.781Z,6.97
2022-07-28T06:44:57.335Z,8.02
2022-07-28T06:47:45.844Z,6.72
2022-07-28T06:50:35.155Z,7.15
2022-07-28T06:53:23.658Z,7.03
2022-07-28T06:56:15.587Z,7.25
2022-07-28T06:59:03.715Z,6.90
2022-07-28T07:01:51.782Z,7.65
2022-07-28T07:04:39.726Z,7.40
2022-07-28T07:07:27.568Z,6.40
2022-07-28T07:10:15.874Z,6.47
2022-07-28T07:13:03.929Z,6.65
2022-07-28T07:15:52.046Z,7.05
2022-07-28T07:18:39.943Z,6.78
2022-07-28T07:21:27.772Z,7.18
2022-07-28T07:24:15.812Z,6.80
2022-07-28T07:27:04.129Z,6.68
2022-07-28T07:29:51.983Z,6.63
2022-07-28T07:32:40.056Z,6.80
2022-07-28T07:35:28.026Z,7.85
2022-07-28T07:38:16.208Z,6.95
2022-07-28T07:41:04.103Z,7.28
2022-07-28T07:43:52.152Z,8.05
2022-07-28T07:46:40.202Z,7.32
2022-07-28T07:49:45.147Z,7.30
2022-07-28T07:52:33.966Z,6.60
2022-07-28T07:55:21.761Z,8.48
2022-07-28T07:58:09.602Z,6.82
2022-07-28T08:00:57.391Z,7.15
2022-07-28T08:03:50.088Z,6.20
2022-07-28T08:06:38.377Z,6.40
2022-07-28T08:09:27.788Z,6.55
2022-07-28T08:12:15.639Z,6.57
2022-07-28T08:15:04.380Z,6.57
2022-07-28T08:17:52.161Z,6.25
2022-07-28T08:20:39.998Z,6.20
2022-07-28T08:23:29.501Z,6.65
2022-07-28T08:26:17.381Z,6.10
2022-07-28T08:29:05.147Z,6.47
2022-07-28T08:31:53.133Z,6.68
2022-07-28T08:34:41.103Z,5.53
2022-07-28T08:37:28.991Z,5.78
2022-07-28T08:40:16.783Z,6.03
2022-07-28T08:43:29.822Z,6.40
2022-07-28T08:46:20.163Z,5.25
2022-07-28T08:49:09.733Z,5.57
2022-07-28T08:52:00.203Z,5.90
2022-07-28T08:54:49.763Z,5.45
2022-07-28T08:57:44.196Z,5.82
2022-07-28T09:00:34.929Z,5.60
2022-07-28T09:03:23.543Z,5.40
2022-07-28T09:06:11.546Z,6.25
2022-07-28T09:08:59.380Z,6.03
2022-07-28T09:11:47.328Z,5.47
2022-07-28T09:14:35.295Z,6.53
2022-07-28T09:17:23.147Z,6.00
2022-07-28T09:20:12.326Z,5.35
2022-07-28T09:23:05.184Z,5.83
2022-07-28T09:26:15.014Z,5.22
2022-07-28T09:29:04.480Z,5.40
2022-07-28T09:31:56.919Z,4.97
2022-07-28T09:34:47.156Z,5.57
2022-07-28T09:37:35.070Z,4.97
2022-07-28T09:40:23.094Z,5.38
2022-07-28T09:43:11.051Z,5.00
2022-07-28T09:46:11.528Z,5.30
2022-07-28T09:49:01.544Z,4.75
2022-07-28T09:56:35.593Z,4.85
2022-07-28T09:59:23.355Z,4.30
2022-07-28T10:02:12.927Z,4.40
2022-07-28T10:05:01.093Z,4.85
2022-07-28T10:07:50.522Z,5.10
2022-07-28T10:10:38.192Z,4.60
2022-07-28T10:13:25.996Z,4.45
2022-07-28T10:16:13.778Z,4.63
2022-07-28T10:19:04.129Z,4.95
2022-07-28T10:21:55.033Z,4.75
2022-07-28T10:24:42.971Z,5.18
2022-07-28T10:27:32.085Z,4.70
2022-07-28T10:30:22.471Z,5.03
2022-07-28T10:33:15.583Z,4.38
2022-07-28T10:36:03.600Z,4.60
2022-07-28T10:38:54.852Z,4.50
2022-07-28T10:41:43.467Z,5.22
2022-07-28T10:44:32.372Z,4.95
2022-07-28T10:47:20.879Z,4.93
2022-07-28T10:50:09.100Z,5.05
2022-07-28T10:52:59.543Z,4.88
2022-07-28T10:55:55.191Z,4.93
2022-07-28T10:59:06.700Z,5.03
2022-07-28T11:01:54.379Z,4.72
2022-07-28T11:04:45.400Z,4.47
2022-07-28T11:07:40.124Z,4.88
2022-07-28T11:10:29.043Z,4.82
2022-07-28T11:13:41.014Z,5.33
2022-07-28T11:16:32.953Z,4.97
2022-07-28T11:19:40.598Z,5.32
2022-07-28T11:22:34.160Z,5.18
2022-07-28T11:25:23.093Z,5.13
2022-07-28T11:28:12.007Z,5.95
2022-07-28T11:30:59.731Z,5.18
2022-07-28T11:33:57.206Z,6.65
2022-07-28T11:37:10.258Z,7.68
2022-07-28T11:40:33.458Z,7.53
2022-07-28T11:43:37.857Z,7.15
2022-07-28T11:47:30.003Z,8.55
2022-07-28T11:50:19.011Z,7.53
2022-07-28T11:53:07.340Z,8.73
2022-07-28T11:56:02.872Z,7.80
2022-07-28T11:59:04.491Z,7.80
2022-07-28T12:01:55.139Z,7.75
2022-07-28T12:04:43.270Z,7.38
2022-07-28T12:07:40.774Z,7.60
2022-07-28T12:10:53.969Z,8.43
2022-07-28T12:13:43.439Z,8.02
2022-07-28T12:16:36.607Z,7.65
2022-07-28T12:19:32.817Z,7.97
2022-07-28T12:22:20.906Z,7.80
2022-07-28T12:25:13.346Z,7.60
2022-07-28T12:28:14.580Z,7.50
2022-07-28T12:31:13.144Z,8.55
2022-07-28T12:34:10.820Z,7.68
2022-07-28T12:37:04.813Z,7.30
2022-07-28T12:39:53.088Z,7.10
2022-07-28T12:42:40.857Z,7.20
2022-07-28T12:45:28.731Z,7.60
2022-07-28T12:48:19.124Z,7.32
2022-07-28T12:51:06.804Z,6.95
2022-07-28T12:53:59.075Z,7.75
2022-07-28T12:56:53.577Z,6.80
2022-07-28T12:59:44.394Z,7.40
2022-07-28T13:02:38.223Z,6.38
2022-07-28T13:05:33.329Z,6.93
2022-07-28T13:08:24.604Z,7.30
2022-07-28T13:11:42.012Z,7.75
2022-07-28T13:14:45.377Z,7.03
2022-07-28T13:17:57.364Z,7.50
2022-07-28T13:20:50.328Z,7.10
2022-07-28T13:23:38.322Z,6.43
2022-07-28T13:26:25.994Z,6.38
2022-07-28T13:29:14.652Z,7.25
2022-07-28T13:32:04.566Z,6.65
2022-07-28T13:34:52.914Z,7.60
2022-07-28T13:37:40.643Z,7.78
2022-07-28T13:40:28.377Z,7.70
2022-07-28T13:43:16.142Z,6.43
2022-07-28T13:46:04.555Z,7.43
2022-07-28T13:48:58.063Z,7.00
2022-07-28T13:51:48.032Z,7.75
2022-07-28T13:54:35.827Z,7.07
2022-07-28T13:57:23.513Z,7.45
2022-07-28T14:00:13.699Z,7.60
2022-07-28T14:03:01.717Z,7.88
2022-07-28T14:05:49.538Z,9.15
2022-07-28T14:08:38.195Z,9.05
2022-07-28T14:11:29.763Z,8.68
2022-07-28T14:14:25.254Z,8.25
2022-07-28T14:17:32.563Z,8.77
2022-07-28T14:20:21.014Z,8.20
2022-07-28T14:23:08.680Z,8.30
2022-07-28T14:26:12.404Z,8.13
2022-07-28T14:29:04.987Z,7.43
2022-07-28T14:31:59.622Z,6.97
2022-07-28T14:34:47.488Z,7.03
2022-07-28T14:38:11.257Z,6.68
2022-07-28T14:40:43.403Z,6.70
2022-07-28T14:43:31.129Z,6.13
2022-07-28T14:46:21.660Z,6.03
2022-07-28T14:49:09.974Z,5.80
2022-07-28T14:51:59.510Z,5.97
2022-07-28T14:54:50.227Z,5.90
2022-07-28T14:57:48.478Z,5.32
2022-07-28T15:00:40.170Z,5.75
2022-07-28T15:03:35.724Z,4.82
2022-07-28T15:06:23.915Z,5.68
2022-07-28T15:09:11.688Z,5.35
2022-07-28T15:12:02.188Z,5.68
2022-07-28T15:14:49.943Z,5.35
2022-07-28T15:17:37.856Z,5.05
2022-07-28T15:20:25.554Z,5.57
2022-07-28T15:23:14.128Z,5.53
2022-07-28T15:26:01.804Z,5.50
2022-07-28T15:28:49.581Z,4.97
2022-07-28T15:31:37.889Z,4.55
2022-07-28T15:34:27.397Z,4.70
2022-07-28T15:37:16.264Z,4.97
2022-07-28T15:40:04.826Z,4.53
2022-07-28T15:42:53.095Z,5.07
2022-07-28T15:45:41.005Z,4.72
2022-07-28T15:48:28.670Z,4.90
2022-07-28T15:51:16.487Z,5.13
2022-07-28T15:54:04.718Z,5.03
2022-07-28T15:56:52.454Z,5.43
2022-07-28T15:59:49.133Z,5.32
2022-07-28T16:02:38.283Z,5.60
2022-07-28T16:05:26.092Z,5.47
2022-07-28T16:08:13.817Z,5.85
2022-07-28T16:11:02.054Z,6.07
2022-07-28T16:13:49.905Z,6.20
2022-07-28T16:16:37.699Z,5.45
2022-07-28T16:19:47.840Z,5.50
2022-07-28T16:22:37.711Z,5.43
2022-07-28T16:25:26.047Z,5.38
2022-07-28T16:28:14.285Z,5.30
2022-07-28T16:31:02.090Z,5.68
2022-07-28T16:33:49.820Z,5.00
2022-07-28T16:36:40.022Z,6.15
2022-07-28T16:39:27.848Z,5.07
2022-07-28T16:42:15.602Z,5.43
2022-07-28T16:45:04.549Z,4.97
2022-07-28T16:47:53.280Z,5.13
2022-07-28T16:50:43.428Z,6.03
2022-07-28T16:53:31.149Z,5.20
2022-07-28T16:56:18.846Z,5.70
2022-07-28T16:59:06.530Z,5.45
2022-07-28T17:02:00.097Z,5.50
2022-07-28T17:04:47.978Z,5.45
2022-07-28T17:07:41.950Z,5.75
2022-07-28T17:10:32.564Z,5.53
2022-07-28T17:13:21.497Z,5.22
2022-07-28T17:16:09.236Z,5.25
2022-07-28T17:18:57.905Z,5.68
2022-07-28T17:21:46.013Z,5.30
2022-07-28T17:24:34.580Z,5.40
2022-07-28T17:27:39.681Z,5.93
2022-07-28T17:30:30.522Z,5.47
2022-07-28T17:33:18.332Z,4.70
2022-07-28T17:36:06.237Z,5.30
2022-07-28T17:38:54.013Z,4.75
2022-07-28T17:41:42.233Z,4.85
2022-07-28T17:44:29.942Z,4.80
2022-07-28T17:47:24.128Z,6.40
2022-07-28T17:50:24.036Z,5.40
2022-07-28T17:53:11.749Z,4.35
2022-07-28T17:56:01.828Z,5.10
2022-07-28T17:58:52.246Z,5.00
2022-07-28T18:01:44.996Z,4.65
2022-07-28T18:04:33.102Z,4.95
2022-07-28T18:07:20.852Z,4.55
2022-07-28T18:10:08.827Z,4.47
2022-07-28T18:12:56.661Z,5.05
2022-07-28T18:15:44.550Z,5.05
2022-07-28T18:18:32.756Z,4.43
2022-07-28T18:21:20.444Z,4.75
2022-07-28T18:24:08.616Z,4.95
2022-07-28T18:26:56.338Z,4.90
2022-07-28T18:29:44.040Z,5.45
2022-07-28T18:32:32.700Z,4.72
2022-07-28T18:35:21.012Z,5.28
2022-07-28T18:38:08.692Z,4.63
2022-07-28T18:40:56.380Z,4.30
2022-07-28T18:43:44.046Z,4.28
2022-07-28T18:46:31.799Z,4.78
2022-07-28T18:49:21.721Z,4.20
2022-07-28T18:52:09.528Z,5.30
2022-07-28T18:54:57.226Z,5.03
2022-07-28T18:57:46.375Z,4.72
2022-07-28T19:00:34.067Z,4.10
2022-07-28T19:03:21.929Z,4.68
2022-07-28T19:06:12.401Z,4.25
2022-07-28T19:09:00.122Z,4.55
2022-07-28T19:11:50.590Z,5.10
2022-07-28T19:14:39.048Z,4.03
2022-07-28T19:17:26.747Z,4.53
2022-07-28T19:20:14.422Z,5.07
2022-07-28T19:23:05.320Z,4.53
2022-07-28T19:25:53.720Z,4.95
2022-07-28T19:28:42.450Z,4.57
2022-07-28T19:31:30.427Z,4.97
2022-07-28T19:34:18.496Z,4.13
2022-07-28T19:37:06.833Z,4.53
2022-07-28T19:39:54.761Z,4.22
2022-07-28T19:42:42.622Z,4.75
2022-07-28T19:45:39.437Z,4.18
2022-07-28T19:48:27.274Z,4.95
2022-07-28T19:51:15.007Z,5.22
2022-07-28T19:54:02.967Z,4.72
2022-07-28T20:02:19.003Z,5.07
2022-07-28T20:05:07.612Z,4.70
2022-07-28T20:07:55.551Z,4.60
2022-07-28T20:10:43.494Z,5.72
2022-07-28T20:13:31.303Z,4.40
2022-07-28T20:16:19.036Z,4.20
2022-07-28T20:19:06.996Z,4.50
2022-07-28T20:21:57.383Z,4.13
2022-07-28T20:24:45.182Z,4.63
2022-07-28T20:27:32.957Z,4.18
2022-07-28T20:30:28.623Z,5.03
2022-07-28T20:33:16.439Z,4.47
2022-07-28T20:36:04.428Z,5.10
2022-07-28T20:38:52.147Z,4.85
2022-07-28T20:41:39.906Z,5.05
2022-07-28T20:44:29.289Z,4.47
2022-07-28T20:47:17.481Z,4.50
2022-07-28T20:50:06.019Z,5.32
2022-07-28T20:52:54.010Z,5.25
2022-07-28T20:55:41.703Z,4.55
2022-07-28T20:58:29.419Z,4.80
2022-07-28T21:01:23.491Z,5.68
2022-07-28T21:04:12.128Z,4.32
2022-07-28T21:07:01.972Z,4.80
2022-07-28T21:09:50.267Z,4.80
2022-07-28T21:12:38.958Z,4.82
2022-07-28T21:15:28.282Z,4.90
2022-07-28T21:18:18.127Z,4.67
2022-07-28T21:21:06.580Z,4.85
2022-07-28T21:23:54.426Z,5.50
2022-07-28T21:26:43.063Z,4.72
2022-07-28T21:29:30.734Z,4.05
2022-07-28T21:32:19.084Z,5.07
2022-07-28T21:35:11.027Z,5.95
2022-07-28T21:38:01.794Z,4.75
2022-07-28T21:40:49.605Z,4.60
2022-07-28T21:43:37.360Z,4.95
2022-07-28T21:46:26.356Z,4.88
2022-07-28T21:49:14.179Z,4.90
2022-07-28T21:52:01.916Z,4.95
2022-07-28T21:54:49.684Z,5.03
2022-07-28T21:57:37.544Z,4.57
2022-07-28T22:00:25.689Z,5.00
2022-07-28T22:03:13.383Z,4.68
2022-07-28T22:06:01.293Z,5.93
2022-07-28T22:08:54.055Z,5.03
2022-07-28T22:11:42.104Z,4.40
2022-07-28T22:14:32.411Z,4.90
2022-07-28T22:20:08.676Z,4.43
2022-07-28T22:22:56.589Z,4.47
2022-07-28T22:25:44.234Z,4.80
2022-07-28T22:28:31.925Z,4.60
2022-07-28T22:31:19.665Z,4.88
2022-07-28T22:34:07.418Z,4.93
2022-07-28T22:36:55.070Z,5.15
2022-07-28T22:39:42.800Z,6.18
2022-07-28T22:42:30.638Z,5.07
2022-07-28T22:45:51.085Z,4.80
2022-07-28T22:48:26.038Z,5.22
2022-07-28T22:51:15.286Z,4.95
2022-07-28T22:54:02.874Z,5.35
2022-07-28T22:56:50.664Z,4.35
2022-07-28T22:59:39.985Z,4.88
2022-07-28T23:02:28.347Z,4.43
2022-07-28T23:05:17.476Z,4.88
2022-07-28T23:08:05.478Z,4.95
2022-07-28T23:10:54.200Z,4.63
2022-07-28T23:13:42.051Z,5.10
2022-07-28T23:16:29.847Z,4.55
2022-07-28T23:19:17.687Z,4.63
2022-07-28T23:22:05.542Z,5.07
2022-07-28T23:24:53.572Z,4.85
2022-07-28T23:27:41.450Z,5.40
2022-07-28T23:30:29.305Z,5.43
2022-07-28T23:33:54.359Z,4.97
2022-07-28T23:36:27.875Z,5.13
2022-07-28T23:39:16.040Z,5.25
2022-07-28T23:42:03.971Z,4.95
2022-07-28T23:44:51.879Z,5.53
2022-07-28T23:47:39.715Z,5.45
2022-07-28T23:50:27.772Z,5.00
2022-07-28T23:53:15.574Z,5.00
2022-07-28T23:56:03.438Z,4.93
2022-07-28T23:58:51.271Z,4.97
